Saint-Sauveur, Quebec

7:59 PM EST on December 18, 2014 (GMT -0500)
SAINT-JEROME MIRABEL | Change Station
CLOSE
Current Station
Personal Weather Station
Location: Saint-Colomban, QC
Elevation: 515 ft
Nearby Weather Stations

Elev 515 ft 45.77 °N, 74.09 °W | Updated 4 minutes ago

Overcast
Overcast
27.7 °F
Feels Like 28 °F
N
0.0
Wind Variable Wind from NW
Gusts 2.0 mph

Tomorrow is forecast to be nearly the same temperature as today.

Today
High -- | Low -- °F
--% Chance of Precip.
Yesterday
High -- | Low -- °F
Precip. -- in
7:33 AM 4:13 PM
Waning Crescent, 11% visible
Pressure 29.95 in
Visibility 25.0 miles
Clouds Scattered Clouds 1600 ft
Overcast 5300 ft
Windchill 28 °F
Dew Point 26 °F
Humidity 93%
Rainfall 0.02 in
Snow Depth Not available.
UV 0 out of 12
Pollen Not available.
Air Quality Not available.
Flu Activity Not available.
METAR CYMX 190000Z 27005KT 200V310 25SM SCT016 OVC053 M02/M04 A2993 RMK SC3SC5 SLP141

More Conditions Fewer Conditions

Pressure 29.95 in
Visibility 25.0 miles
Clouds Scattered Clouds 1600 ft
Overcast 5300 ft
Windchill 28 °F
Dew Point 26 °F
Humidity 93%
Rainfall 0.02 in
Snow Depth Not available.
UV 0 out of 12
Pollen Not available.
Air Quality Not available.
Flu Activity Not available.
METAR CYMX 190000Z 27005KT 200V310 25SM SCT016 OVC053 M02/M04 A2993 RMK SC3SC5 SLP141

More Conditions Fewer Conditions

10-Day Weather Forecast

Almanac

Astronomy

Dec. 18, 2014 Rise Set
Actual Time
Civil Twilight
Nautical Twilight
Astronomical Twilight
Moon
Length of Visible Light
Length of Day
Tomorrow will be .
, % of the Moon is Illuminated

Today's Extremes

Country Highs Country Lows

Community

WunderPhotos

Upload Photos

1,779,016 photos uploaded!

WunderBlogs® & News

Nearby

Air Quality

  Air Quality AQ Index Pollutant
Not available.

Snow Depth

Station Depth Elevation

Earthquake Activity

City Distance Mag. Time & Date
Minimum magnitude displayed is 2.5.

Coastal Water Temperatures

Place Temperature

Nearby Weather Stations